• Join FlightAware (Why Join?)
  • Login
  • US Flag 
04:40AM EDT


 

Airport Tracker/Info


-or-


 

Live Flight TrackerFlight Track Log ✈ N53442 ✈ 02-Jul-2013 ✈ KORD - KSFO

Flight Track Log - Related Links

Times and Time Zones

All times are in EDT time to prevent confusion due to time zone crossing. See the N53442 flight status page for this flight to view local times or setup timezone preferences in your user account.

Time Position Orientation Groundspeed Altitude Reporting Facility
EDT Latitude Longitude Course Direction KTS MPH feet Rate Location/Type
01:54PM 41.9970 -87.9400 319° Northwest 180 207 1,200  Level FlightAware
01:54PM 42.0060 -87.9500 320° Northwest 183 211 1,800 1,620 Climbing FlightAware
01:55PM 42.0230 -87.9660 325° Northwest 213 245 2,200 1,560 Climbing FlightAware
01:55PM 42.0430 -87.9860 323° Northwest 233 268 3,000 1,980 Climbing FlightAware
01:56PM 42.0700 -88.0140 322° Northwest 253 291 4,000 1,920 Climbing FlightAware
01:56PM 42.0950 -88.0380 325° Northwest 268 308 4,800 1,140 Climbing FlightAware
01:57PM 42.1190 -88.0770 310° West 282 325 5,100 840 Climbing FlightAware
01:57PM 42.1240 -88.0930 293° West 284 327 5,400 3,300 Climbing FlightAware
01:57PM 42.1370 -88.1390 291° West 279 321 7,100 1,680 Climbing FlightAware
01:58PM 42.1380 -88.1910 272° West 281 323 7,300 2,400 Climbing FlightAware
01:58PM 42.1320 -88.2480 262° West 300 345 9,600 3,420 Climbing FlightAware
01:59PM 42.1290 -88.3260 267° West 330 380 10,700 1,920 Climbing FlightAware
02:00PM 42.1250 -88.4220 267° West 348 400 12,400 2,340 Climbing FlightAware
02:00PM 42.1220 -88.4960 267° West 353 406 13,800 2,400 Climbing FlightAware
02:01PM 42.1190 -88.5870 267° West 360 414 15,400 2,340 Climbing FlightAware
02:02PM 42.1170 -88.6900 269° West 366 421 17,200 2,160 Climbing FlightAware
02:02PM 42.1150 -88.7640 268° West 374 430 18,200 1,920 Climbing FlightAware
02:03PM 42.1120 -88.8650 268° West 383 441 19,600 1,800 Climbing FlightAware
02:04PM 42.1100 -88.9740 269° West 392 451 20,900 1,740 Climbing FlightAware
02:04PM 42.1080 -89.0690 268° West 398 458 22,100 1,620 Climbing FlightAware
02:05PM 42.1060 -89.1710 269° West 405 466 23,100 1,560 Climbing FlightAware
02:06PM 42.1050 -89.2850 269° West 411 473 24,400 1,620 Climbing FlightAware
02:06PM 42.1040 -89.3890 269° West 415 478 25,400 1,380 Climbing FlightAware
02:07PM 42.1030 -89.4920 269° West 420 483 26,300 1,260 Climbing FlightAware
02:08PM 42.1030 -89.5960 270° West 424 488 27,100 1,260 Climbing FlightAware
02:08PM 42.1020 -89.7140 269° West 427 491 28,100 1,320 Climbing FlightAware
02:09PM 42.1020 -89.7860 270° West 428 493 28,700 1,200 Climbing FlightAware
02:10PM 42.1030 -89.9100 271° West 432 497 29,600 1,020 Climbing FlightAware
02:10PM 42.1040 -90.0200 271° West 436 502 30,200 900 Climbing FlightAware
02:11PM 42.1050 -90.1180 271° West 441 507 30,800 1,020 Climbing FlightAware
02:12PM 42.1060 -90.2520 271° West 440 506 31,700 1,020 Climbing FlightAware
02:12PM 42.1080 -90.3530 272° West 439 505 32,300 900 Climbing FlightAware
02:13PM 42.1090 -90.4780 271° West 440 506 33,000 780 Climbing FlightAware
02:14PM 42.1210 -90.5900 278° West 443 510 33,500 720 Climbing FlightAware
02:15PM 42.1370 -90.6980 281° West 444 511 34,000 360 Climbing FlightAware
02:15PM 42.1550 -90.8120 282° West 445 512 34,000  Level FlightAware
02:16PM 42.1740 -90.9380 282° West 444 511 34,000  Level FlightAware
02:17PM 42.1890 -91.0390 281° West 444 511 34,000  Level FlightAware
02:17PM 42.2060 -91.1600 281° West 444 511 34,000  Level FlightAware
02:18PM 42.2210 -91.2670 281° West 445 512 34,000  Level FlightAware
02:19PM 42.2390 -91.3930 281° West 445 512 34,000  Level FlightAware
02:20PM 42.2560 -91.5110 281° West 445 512 34,000  Level FlightAware
02:20PM 42.2700 -91.6160 280° West 445 512 34,000  Level FlightAware
02:21PM 42.2860 -91.7320 281° West 445 512 34,000  Level FlightAware
02:21PM 42.3000 -91.8280 281° West 446 513 34,000  Level FlightAware
02:22PM 42.3140 -91.9310 280° West 447 514 34,000  Level FlightAware
02:23PM 42.3310 -92.0580 280° West 448 516 34,000  Level FlightAware
02:23PM 42.3430 -92.1470 280° West 449 517 34,000  Level FlightAware
02:24PM 42.3570 -92.2540 280° West 449 517 34,000  Level FlightAware
02:25PM 42.3740 -92.3840 280° West 447 514 34,000  Level FlightAware
02:25PM 42.3870 -92.4780 281° West 447 514 34,000  Level FlightAware
02:26PM 42.4020 -92.5970 280° West 446 513 34,000  Level FlightAware
02:27PM 42.4180 -92.7130 281° West 448 516 34,000  Level FlightAware
02:28PM 42.4320 -92.8250 280° West 449 517 34,000  Level FlightAware
02:28PM 42.4470 -92.9420 280° West 453 521 34,000  Level FlightAware
02:29PM 42.4630 -93.0600 280° West 454 522 34,000  Level FlightAware
02:30PM 42.4770 -93.1760 279° West 455 524 34,000  Level FlightAware
02:30PM 42.4950 -93.3240 279° West 455 524 34,000  Level FlightAware
02:31PM 42.5080 -93.4280 280° West 455 524 34,000  Level FlightAware
02:32PM 42.5240 -93.5550 280° West 453 521 34,000  Level FlightAware
02:33PM 42.5380 -93.6720 279° West 452 520 34,000  Level FlightAware
02:33PM 42.5520 -93.7910 279° West 450 518 34,000  Level FlightAware
02:34PM 42.5641 -93.8922 279° West 451 519 34,000  Level FlightAware ADS-B
02:34PM 42.5745 -93.9806 279° West 450 518 34,000  Level FlightAware ADS-B
02:35PM 42.5870 -94.0872 279° West 450 518 34,000  Level FlightAware ADS-B
02:36PM 42.5971 -94.1733 279° West 449 517 34,000  Level FlightAware ADS-B
02:36PM 42.6075 -94.2630 279° West 448 516 34,000  Level FlightAware ADS-B
02:36PM 42.6105 -94.3108 275° West 451 519 34,000  Level FlightAware ADS-B
02:37PM 42.6098 -94.3973 269° West 450 518 34,000  Level FlightAware ADS-B
02:37PM 42.6092 -94.4443 269° West 450 518 34,000  Level FlightAware ADS-B
02:38PM 42.6073 -94.5707 269° West 448 516 34,000  Level FlightAware ADS-B
02:40PM 42.6020 -94.8460 269° West 446 513 34,000  Level FlightAware
02:40PM 42.6010 -94.9620 269° West 446 513 34,000  Level FlightAware
02:41PM 42.5990 -95.0770 269° West 444 511 34,000  Level FlightAware
02:42PM 42.5960 -95.1670 267° West 444 511 34,000  Level FlightAware
02:42PM 42.5940 -95.2530 268° West 444 511 34,000  Level FlightAware
02:43PM 42.5920 -95.3900 269° West 441 507 34,000  Level FlightAware
02:44PM 42.5890 -95.5050 268° West 441 507 34,000  Level FlightAware
02:44PM 42.5840 -95.6470 267° West 440 506 34,000  Level FlightAware
02:45PM 42.5810 -95.7270 267° West 440 506 34,000  Level FlightAware
02:46PM 42.5760 -95.8460 267° West 440 506 34,000  Level FlightAware
02:46PM 42.5730 -95.9280 267° West 440 506 34,000  Level FlightAware
02:47PM 42.5690 -96.0430 267° West 440 506 34,000  Level FlightAware
02:48PM 42.5660 -96.1280 267° West 440 506 34,000  Level FlightAware
02:49PM 42.5610 -96.2400 267° West 440 506 34,000  Level FlightAware
02:49PM 42.5580 -96.3250 267° West 440 506 34,000  Level FlightAware
02:50PM 42.5550 -96.4120 267° West 440 506 34,000  Level FlightAware
02:51PM 42.5500 -96.5240 267° West 440 506 34,000  Level FlightAware
02:51PM 42.5460 -96.6320 267° West 440 506 34,000  Level FlightAware
02:52PM 42.5499 -96.8521 271° West 435 501 34,000  Level FlightAware ADS-B
02:52PM 42.5469 -96.9345 267° West 440 506 34,000  Level FlightAware ADS-B
02:53PM 42.5439 -97.0186 267° West 442 509 34,000  Level FlightAware ADS-B
02:53PM 42.5408 -97.1024 267° West 443 510 34,000  Level FlightAware ADS-B
02:54PM 42.5375 -97.1873 267° West 442 509 34,000  Level FlightAware ADS-B
02:54PM 42.5334 -97.2921 267° West 442 509 34,000  Level FlightAware ADS-B
02:55PM 42.5301 -97.3754 267° West 443 510 34,000  Level FlightAware ADS-B
02:55PM 42.5267 -97.4593 267° West 442 509 34,000  Level FlightAware ADS-B
02:56PM 42.5233 -97.5429 267° West 442 509 34,000  Level FlightAware ADS-B
02:57PM 42.5187 -97.6563 267° West 443 510 34,000  Level FlightAware ADS-B
02:57PM 42.5151 -97.7404 267° West 443 510 34,000  Level FlightAware ADS-B
02:58PM 42.5115 -97.8232 267° West 442 509 34,000  Level FlightAware ADS-B
02:58PM 42.5078 -97.9069 267° West 442 509 34,000  Level FlightAware ADS-B
02:59PM 42.5034 -98.0051 267° West 441 507 34,000  Level FlightAware ADS-B
02:59PM 42.4995 -98.0899 266° West 440 506 34,000  Level FlightAware ADS-B
03:00PM 42.4930 -98.2306 266° West 440 506 34,000  Level FlightAware ADS-B
03:01PM 42.4874 -98.3471 266° West 440 506 34,000  Level FlightAware ADS-B
03:01PM 42.4833 -98.4313 266° West 440 506 34,000  Level FlightAware ADS-B
03:02PM 42.4792 -98.5136 266° West 441 507 34,000  Level FlightAware ADS-B
03:02PM 42.4751 -98.5968 266° West 441 507 34,000  Level FlightAware ADS-B
03:03PM 42.4707 -98.6809 266° West 441 507 34,000  Level FlightAware ADS-B
03:04PM 42.4452 -98.9405 263° West 443 510 34,000  Level FlightAware ADS-B
03:05PM 42.4367 -99.0241 262° West 442 509 34,000  Level FlightAware ADS-B
03:05PM 42.4284 -99.1069 262° West 442 509 34,000  Level FlightAware ADS-B
03:06PM 42.4200 -99.1888 262° West 441 507 34,000  Level FlightAware ADS-B
03:06PM 42.4114 -99.2719 262° West 441 507 34,000  Level FlightAware ADS-B
03:07PM 42.4025 -99.3565 262° West 441 507 34,000  Level FlightAware ADS-B
03:08PM 42.3908 -99.4679 262° West 441 507 34,000  Level FlightAware ADS-B
03:09PM 42.3731 -99.6286 262° West 441 507 34,000  Level Denver Center
03:10PM 42.3528 -99.8211 262° West 440 506 34,000  Level Denver Center
03:11PM 42.3353 -99.9786 262° West 442 509 34,000  Level Denver Center
03:12PM 42.3156 -100.1614 262° West 443 510 34,000  Level Denver Center
03:13PM 42.2975 -100.3203 261° West 445 512 34,000  Level Denver Center
03:14PM 42.2767 -100.5064 261° West 450 518 34,000  Level Denver Center
03:15PM 42.2575 -100.6686 261° West 456 525 34,000  Level Denver Center
03:16PM 42.2383 -100.8289 261° West 455 524 34,000  Level Denver Center
03:17PM 42.2167 -101.0172 261° West 455 524 34,000  Level Denver Center
03:23PM 42.0872 -102.0590 261° West 455 524 34,000  Level FlightAware ADS-B
03:24PM 42.0754 -102.1500 260° West 454 522 34,000  Level FlightAware ADS-B
03:24PM 42.0640 -102.2380 260° West 455 524 34,000  Level FlightAware ADS-B
03:25PM 42.0528 -102.3230 260° West 455 524 34,000  Level FlightAware ADS-B
03:25PM 42.0396 -102.4230 260° West 455 524 34,000  Level FlightAware ADS-B
03:26PM 42.0284 -102.5070 260° West 455 524 34,000  Level FlightAware ADS-B
03:26PM 42.0172 -102.5910 260° West 456 525 34,000  Level FlightAware ADS-B
03:27PM 42.0061 -102.6750 260° West 457 526 34,000  Level FlightAware ADS-B
03:27PM 41.9947 -102.7590 260° West 457 526 34,000  Level FlightAware ADS-B
03:28PM 41.9830 -102.8450 260° West 459 528 34,000  Level FlightAware ADS-B
03:28PM 41.9713 -102.9300 260° West 460 529 34,000  Level FlightAware ADS-B
03:29PM 41.9593 -103.0170 260° West 460 529 34,000  Level FlightAware ADS-B
03:29PM 41.9474 -103.1030 259° West 461 531 34,000  Level FlightAware ADS-B
03:30PM 41.9354 -103.1890 259° West 461 531 34,000  Level FlightAware ADS-B
03:31PM 41.9219 -103.2860 259° West 462 532 34,000  Level FlightAware ADS-B
03:31PM 41.9095 -103.3740 259° West 462 532 34,000  Level FlightAware ADS-B
03:32PM 41.8975 -103.4590 259° West 462 532 34,000  Level FlightAware ADS-B
03:32PM 41.8885 -103.5060 256° West 470 541 34,000  Level FlightAware ADS-B
03:32PM 41.8686 -103.5900 252° West 471 542 34,000  Level FlightAware ADS-B
03:33PM 41.8487 -103.6730 252° West 470 541 34,000  Level FlightAware ADS-B
03:33PM 41.8288 -103.7570 252° West 469 540 34,000  Level FlightAware ADS-B
03:34PM 41.8088 -103.8400 252° West 467 537 34,000  Level FlightAware ADS-B
03:34PM 41.7887 -103.9230 252° West 466 536 34,000  Level FlightAware ADS-B
03:35PM 41.7686 -104.0060 252° West 465 535 34,000  Level FlightAware ADS-B
03:35PM 41.7486 -104.0890 252° West 464 534 34,000  Level FlightAware ADS-B
03:36PM 41.7285 -104.1710 252° West 463 533 34,000  Level FlightAware ADS-B
03:36PM 41.7083 -104.2540 252° West 461 531 34,000  Level FlightAware ADS-B
03:37PM 41.6880 -104.3370 252° West 460 529 34,000  Level FlightAware ADS-B
03:37PM 41.6681 -104.4180 252° West 459 528 34,000  Level FlightAware ADS-B
03:38PM 41.6473 -104.5020 252° West 458 527 34,000  Level FlightAware ADS-B
03:38PM 41.6272 -104.5830 252° West 460 529 34,000  Level FlightAware ADS-B
03:39PM 41.6042 -104.6760 252° West 463 533 34,000  Level FlightAware ADS-B
03:40PM 41.5835 -104.7580 251° West 462 532 34,000  Level FlightAware ADS-B
03:40PM 41.5590 -104.8560 252° West 462 532 34,000  Level FlightAware ADS-B
03:41PM 41.5382 -104.9390 252° West 460 529 34,000  Level FlightAware ADS-B
03:41PM 41.5177 -105.0200 251° West 460 529 34,000  Level FlightAware ADS-B
03:42PM 41.4972 -105.1010 251° West 460 529 34,000  Level FlightAware ADS-B
03:42PM 41.4695 -105.2100 251° West 459 528 34,000  Level FlightAware ADS-B
03:43PM 41.4460 -105.3030 251° West 460 529 34,000  Level FlightAware
03:43PM 41.4371 -105.3360 250° West 460 529 34,000  Level FlightAware ADS-B
03:44PM 41.3890 -105.5230 251° West 460 529 34,000  Level FlightAware
03:45PM 41.3570 -105.6460 251° West 458 527 34,000  Level FlightAware
03:46PM 41.3310 -105.7490 251° West 458 527 34,000  Level FlightAware
03:47PM 41.2930 -105.9020 252° West 457 526 34,000 300 Level FlightAware
03:47PM 41.2700 -105.9930 251° West 456 525 34,500 840 Climbing FlightAware
03:48PM 41.2350 -106.1370 252° West 455 524 35,300 720 Climbing FlightAware
03:49PM 41.1960 -106.2890 251° West 456 525 35,900 360 Climbing FlightAware
03:50PM 41.1610 -106.4270 251° West 456 525 36,000  Climbing FlightAware
03:51PM 41.1270 -106.5600 251° West 456 525 36,000  Level FlightAware
03:52PM 41.0920 -106.6990 252° West 455 524 36,000  Level FlightAware
03:53PM 41.0610 -106.8190 251° West 454 522 36,000  Level FlightAware
03:54PM 41.0260 -106.9530 251° West 454 522 36,000  Level FlightAware
03:54PM 41.0060 -107.0320 251° West 454 522 36,000  Level FlightAware
03:55PM 40.9770 -107.1440 251° West 454 522 36,000  Level FlightAware
03:56PM 40.9550 -107.2260 250° West 454 522 36,000  Level FlightAware
03:56PM 40.9270 -107.3340 251° West 454 522 36,000  Level FlightAware
03:57PM 40.9070 -107.4090 251° West 454 522 36,000  Level FlightAware
03:58PM 40.8500 -107.6250 251° West 446 513 36,000  Level FlightAware
03:58PM 40.8200 -107.7360 250° West 449 517 36,000  Level FlightAware
03:59PM 40.7950 -107.8280 250° West 450 518 36,000  Level FlightAware
04:00PM 40.7560 -107.9760 251° West 453 521 36,000  Level FlightAware
04:01PM 40.7250 -108.0870 250° West 454 522 36,000  Level FlightAware
04:01PM 40.6970 -108.1920 251° West 456 525 36,000  Level FlightAware
04:02PM 40.6670 -108.3010 250° West 457 526 36,000  Level FlightAware
04:03PM 40.6360 -108.4140 250° West 459 528 36,000  Level FlightAware
04:03PM 40.6070 -108.5200 250° West 461 531 36,000  Level FlightAware
04:04PM 40.5730 -108.6430 250° West 463 533 36,000  Level FlightAware
04:05PM 40.5420 -108.7530 250° West 463 533 36,000  Level FlightAware
04:05PM 40.5190 -108.8380 250° West 464 534 36,000  Level FlightAware
04:06PM 40.4830 -108.9640 249° West 463 533 36,000  Level FlightAware
04:07PM 40.4510 -109.0780 250° West 463 533 36,000  Level FlightAware
04:08PM 40.4230 -109.1770 250° West 463 533 36,000  Level FlightAware
04:08PM 40.3920 -109.2880 250° West 462 532 36,000  Level FlightAware
04:09PM 40.3630 -109.3900 250° West 462 532 36,000  Level FlightAware
04:10PM 40.3290 -109.5080 249° West 459 528 36,000  Level FlightAware
04:10PM 40.3040 -109.5940 249° West 456 525 36,000  Level FlightAware
04:11PM 40.2770 -109.6870 249° West 455 524 36,000  Level FlightAware
04:12PM 40.2400 -109.8160 249° West 455 524 36,000  Level FlightAware
04:12PM 40.2090 -109.9230 249° West 458 527 36,000  Level FlightAware
04:13PM 40.1810 -110.0190 249° West 459 528 36,000  Level FlightAware
04:14PM 40.1480 -110.1300 249° West 459 528 36,000  Level FlightAware
04:14PM 40.1100 -110.2420 246° West 465 535 36,000  Level FlightAware
04:15PM 40.0630 -110.3770 246° West 466 536 36,000  Level FlightAware
04:16PM 40.0270 -110.4820 246° West 469 540 36,000  Level FlightAware
04:17PM 39.9950 -110.5740 246° West 468 539 36,000  Level FlightAware
04:17PM 39.9530 -110.6950 246° West 469 540 36,000  Level FlightAware
04:18PM 39.9213 -110.7860 246° West 468 539 36,000  Level FlightAware ADS-B
04:19PM 39.8878 -110.8820 246° West 467 537 36,000  Level FlightAware ADS-B
04:19PM 39.8601 -110.9610 245° Southwest 464 534 36,000  Level FlightAware ADS-B
04:20PM 39.8329 -111.0380 245° Southwest 462 532 36,000  Level FlightAware ADS-B
04:20PM 39.8059 -111.1140 245° Southwest 462 532 36,000  Level FlightAware ADS-B
04:21PM 39.7779 -111.1940 246° West 461 531 36,000  Level FlightAware ADS-B
04:21PM 39.7511 -111.2690 245° Southwest 460 529 36,000  Level FlightAware ADS-B
04:22PM 39.7224 -111.3500 245° Southwest 459 528 36,000  Level FlightAware ADS-B
04:22PM 39.6919 -111.4350 245° Southwest 459 528 36,000  Level FlightAware ADS-B
04:23PM 39.6628 -111.5160 245° Southwest 460 529 36,000  Level FlightAware ADS-B
04:23PM 39.6357 -111.5920 245° Southwest 460 529 36,000  Level FlightAware ADS-B
04:24PM 39.6082 -111.6680 245° Southwest 460 529 36,000  Level FlightAware ADS-B
04:24PM 39.5788 -111.7500 245° Southwest 458 527 36,000  Level FlightAware ADS-B
04:25PM 39.5505 -111.8280 245° Southwest 457 526 36,000  Level FlightAware ADS-B
04:25PM 39.5233 -111.9030 245° Southwest 457 526 36,000  Level FlightAware ADS-B
04:26PM 39.4870 -112.0030 245° Southwest 456 525 36,000  Level FlightAware ADS-B
04:27PM 39.4582 -112.0820 245° Southwest 455 524 36,000  Level FlightAware ADS-B
04:27PM 39.4280 -112.1640 245° Southwest 454 522 36,000  Level FlightAware ADS-B
04:28PM 39.4007 -112.2390 245° Southwest 455 524 36,000  Level FlightAware ADS-B
04:28PM 39.3736 -112.3120 244° Southwest 455 524 36,000  Level FlightAware ADS-B
04:29PM 39.3424 -112.3970 245° Southwest 457 526 36,000  Level FlightAware ADS-B
04:29PM 39.3146 -112.4720 244° Southwest 457 526 36,000  Level FlightAware ADS-B
04:30PM 39.2944 -112.5410 249° West 456 525 36,000  Level FlightAware ADS-B
04:30PM 39.2766 -112.6200 254° West 456 525 36,000  Level FlightAware ADS-B
04:31PM 39.2589 -112.6980 254° West 455 524 36,000  Level FlightAware ADS-B
04:31PM 39.2410 -112.7770 254° West 456 525 36,000  Level FlightAware ADS-B
04:32PM 39.2227 -112.8580 254° West 455 524 36,000  Level FlightAware ADS-B
04:32PM 39.2048 -112.9360 254° West 456 525 36,000  Level FlightAware ADS-B
04:33PM 39.1865 -113.0160 254° West 455 524 36,000  Level FlightAware ADS-B
04:33PM 39.1684 -113.0960 254° West 453 521 36,000  Level FlightAware ADS-B
04:34PM 39.1464 -113.1947 254° West 452 520 36,000  Level Salt Lake Center
04:35PM 39.1025 -113.3797 253° West 452 520 36,000  Level Salt Lake Center
04:36PM 39.0672 -113.5347 254° West 453 521 36,000  Level Salt Lake Center
04:37PM 39.0308 -113.6892 253° West 453 521 36,000  Level Salt Lake Center
04:38PM 38.9936 -113.8450 253° West 457 526 36,000  Level Salt Lake Center
04:39PM 38.9569 -114.0000 253° West 456 525 36,000  Level Salt Lake Center
04:40PM 38.9189 -114.1539 252° West 454 522 36,000  Level Salt Lake Center
04:41PM 38.8764 -114.3339 253° West 445 512 36,000  Level Salt Lake Center
04:42PM 38.8403 -114.4842 253° West 443 510 36,000  Level Salt Lake Center
04:43PM 38.8028 -114.6353 252° West 444 511 36,000  Level Salt Lake Center
04:44PM 38.7656 -114.7847 252° West 442 509 36,000  Level Salt Lake Center
04:45PM 38.7569 -114.9389 266° West 460 529 36,000  Level Salt Lake Center
04:46PM 38.8089 -115.0775 296° West 445 512 36,000  Level Salt Lake Center
04:47PM 38.7850 -115.2342 259° West 447 514 36,000  Level Salt Lake Center
04:48PM 38.7389 -115.3878 249° West 442 509 36,000  Level Salt Lake Center
04:49PM 38.6872 -115.5653 250° West 444 511 36,000  Level Salt Lake Center
04:51PM 38.6422 -115.7144 249° West 449 517 36,000  Level Salt Lake Center
04:52PM 38.5983 -115.8619 249° West 445 512 36,000  Level Salt Lake Center
04:53PM 38.5539 -116.0106 249° West 447 514 36,000  Level Salt Lake Center
04:54PM 38.5094 -116.1569 249° West 444 511 36,000  Level Salt Lake Center
04:55PM 38.4647 -116.3033 249° West 443 510 36,000  Level Salt Lake Center
04:56PM 38.4203 -116.4472 249° West 438 504 36,000  Level Salt Lake Center
04:57PM 38.3675 -116.6186 249° West 436 502 36,000  Level Salt Lake Center
04:58PM 38.3233 -116.7611 248° West 434 499 36,000  Level Salt Lake Center
05:03PM 38.0680 -117.5690 248° West 436 502 36,000  Level FlightAware
05:04PM 38.0370 -117.6620 247° West 436 502 36,000  Level FlightAware
05:05PM 38.0130 -117.7340 247° West 436 502 36,000  Level FlightAware
05:05PM 37.9870 -117.8100 247° West 436 502 36,000  Level FlightAware
05:07PM 37.9390 -117.9550 247° West 436 502 36,000  Level FlightAware
05:07PM 37.9160 -118.0250 247° West 436 502 36,000  Level FlightAware
05:08PM 37.8840 -118.1210 247° West 436 502 36,000  Level FlightAware
05:09PM 37.8580 -118.1970 247° West 436 502 36,000  Level FlightAware
05:10PM 37.8170 -118.3180 247° West 436 502 36,000  Level FlightAware
05:10PM 37.8110 -118.5720 268° West 437 503 36,000  Level FlightAware
05:11PM 37.7890 -118.6610 253° West 440 506 36,000  Level FlightAware
05:12PM 37.7580 -118.8100 255° West 443 510 36,000  Level FlightAware
05:12PM 37.7460 -118.9170 262° West 443 510 36,000  Level FlightAware
05:13PM 37.7350 -119.0240 263° West 443 510 36,000  Level FlightAware
05:14PM 37.7220 -119.1390 262° West 443 510 36,000  Level FlightAware
05:15PM 37.7110 -119.2390 262° West 441 507 36,000  Level FlightAware
05:15PM 37.6990 -119.3420 262° West 441 507 36,000  Level FlightAware
05:16PM 37.6860 -119.4570 262° West 441 507 36,000  Level FlightAware
05:17PM 37.6740 -119.5660 262° West 440 506 36,000 -420 Level FlightAware
05:17PM 37.6620 -119.6650 261° West 445 512 35,500 -900 Descending FlightAware
05:18PM 37.6500 -119.7710 262° West 453 521 34,800 -1,440 Descending FlightAware
05:19PM 37.6390 -119.8640 262° West 459 528 33,700 -2,160 Descending FlightAware
05:19PM 37.6240 -119.9880 261° West 468 539 31,900 -2,280 Descending FlightAware
05:20PM 37.6120 -120.0930 262° West 470 541 30,500 -2,220 Descending FlightAware
05:21PM 37.6000 -120.1860 261° West 468 539 29,200 -2,280 Descending FlightAware
05:21PM 37.5860 -120.3070 262° West 458 527 27,500 -2,280 Descending FlightAware
05:22PM 37.5730 -120.4120 261° West 447 514 26,000 -2,220 Descending FlightAware
05:23PM 37.5610 -120.5030 261° West 435 501 24,700 -1,800 Descending FlightAware
05:23PM 37.5570 -120.6070 267° West 418 481 23,700 -1,440 Descending FlightAware
05:24PM 37.5570 -120.6990 270° West 410 472 22,800 -1,740 Descending FlightAware
05:25PM 37.5560 -120.8570 270° West 398 458 20,700 -1,920 Descending FlightAware
05:26PM 37.5560 -120.9670 270° West 389 448 19,100 -1,980 Descending FlightAware
05:27PM 37.5552 -121.0690 269° West 380 437 17,700 -1,860 Descending FlightAware ADS-B
05:27PM 37.5546 -121.1400 269° West 374 430 16,700 -1,920 Descending FlightAware ADS-B
05:28PM 37.5542 -121.2060 270° West 370 426 15,700 -1,920 Descending FlightAware ADS-B
05:28PM 37.5538 -121.2710 270° West 365 420 14,800 -1,800 Descending FlightAware ADS-B
05:29PM 37.5534 -121.3350 270° West 361 415 13,900 -1,920 Descending FlightAware ADS-B
05:29PM 37.5529 -121.3980 269° West 357 411 12,900 -1,920 Descending FlightAware ADS-B
05:30PM 37.5524 -121.4610 269° West 353 406 12,000 -1,380 Descending FlightAware ADS-B
05:30PM 37.5519 -121.5220 269° West 337 388 11,500 -840 Descending FlightAware ADS-B
05:31PM 37.5514 -121.5790 269° West 315 362 11,200 -540 Descending FlightAware ADS-B
05:31PM 37.5509 -121.6080 269° West 303 349 11,100 -300 Descending FlightAware ADS-B
05:31PM 37.5501 -121.6180 264° West 301 346 11,100 -360 Level FlightAware ADS-B
05:31PM 37.5475 -121.6350 259° West 293 337 11,000 -180 Descending FlightAware ADS-B
05:32PM 37.5351 -121.6830 252° West 272 313 11,000 -600 Level FlightAware ADS-B
05:32PM 37.5230 -121.7280 251° West 267 307 10,400 -1,020 Descending FlightAware ADS-B
05:33PM 37.5110 -121.7720 251° West 263 303 10,000 -420 Descending FlightAware ADS-B
05:33PM 37.4994 -121.8150 251° West 256 295 10,000 -420 Level FlightAware ADS-B
05:34PM 37.4938 -121.8360 251° West 252 290 9,700 -1,440 Descending FlightAware ADS-B
05:34PM 37.4879 -121.8580 251° West 255 293 9,300 -1,800 Descending FlightAware ADS-B
05:34PM 37.4860 -121.8650 251° West 256 295 9,100 -1,800 Descending FlightAware ADS-B
05:34PM 37.4848 -121.8720 258° West 255 293 9,000 -1,200 Descending FlightAware ADS-B
05:34PM 37.4842 -121.8790 264° West 255 293 8,900 -1,380 Descending FlightAware ADS-B
05:34PM 37.4841 -121.8850 269° West 255 293 8,800 -1,500 Descending FlightAware ADS-B
05:34PM 37.4846 -121.8910 276° West 255 293 8,700 -1,500 Descending FlightAware ADS-B
05:34PM 37.4855 -121.8970 281° West 255 293 8,600 -1,380 Descending FlightAware ADS-B
05:34PM 37.4869 -121.9040 284° West 254 292 8,500 -1,440 Descending FlightAware ADS-B
05:35PM 37.4913 -121.9270 284° West 252 290 8,100 -840 Descending FlightAware ADS-B
05:35PM 37.4952 -121.9460 285° West 232 267 8,100 -240 Level FlightAware ADS-B
05:35PM 37.4989 -121.9650 284° West 217 250 8,000 -780 Descending FlightAware ADS-B
05:35PM 37.5025 -121.9830 284° West 212 244 7,700 -1,380 Descending FlightAware ADS-B
05:36PM 37.5053 -121.9960 285° West 210 242 7,400 -1,800 Descending FlightAware ADS-B
05:36PM 37.5071 -122.0040 286° West 208 239 7,200 -2,040 Descending FlightAware ADS-B
05:36PM 37.5090 -122.0100 292° West 208 239 7,000 -2,340 Descending FlightAware ADS-B
05:36PM 37.5145 -122.0270 292° West 214 246 6,400 -2,400 Descending FlightAware ADS-B
05:36PM 37.5185 -122.0400 291° West 218 251 6,000 -2,160 Descending FlightAware ADS-B
05:36PM 37.5235 -122.0570 290° West 216 249 5,500 -1,680 Descending FlightAware ADS-B
05:37PM 37.5269 -122.0690 290° West 213 245 5,300 -1,620 Descending FlightAware ADS-B
05:37PM 37.5320 -122.0870 290° West 208 239 4,800 -1,680 Descending FlightAware ADS-B
05:37PM 37.5392 -122.1090 292° West 206 237 4,300 -1,560 Descending FlightAware ADS-B
05:37PM 37.5449 -122.1260 293° West 207 238 3,900 -1,740 Descending FlightAware ADS-B
05:38PM 37.5495 -122.1400 293° West 206 237 3,500 -1,560 Descending FlightAware ADS-B
05:38PM 37.5542 -122.1550 292° West 198 228 3,200 -1,080 Descending FlightAware ADS-B
05:38PM 37.5588 -122.1720 289° West 190 219 3,000 -1,020 Descending FlightAware ADS-B
05:38PM 37.5636 -122.1880 291° West 184 212 2,700 -1,020 Descending FlightAware ADS-B
05:39PM 37.5680 -122.2030 290° West 179 206 2,500 -1,020 Descending FlightAware ADS-B
05:39PM 37.5726 -122.2180 291° West 175 201 2,200 -1,080 Descending FlightAware ADS-B
05:39PM 37.5762 -122.2300 291° West 168 193 2,000 -900 Descending FlightAware ADS-B
05:39PM 37.5778 -122.2360 289° West 166 191 1,900 -1,140 Descending FlightAware ADS-B
05:39PM 37.5786 -122.2400 284° West 164 189 1,800 -960 Descending FlightAware ADS-B
05:40PM 37.5806 -122.2540 280° West 159 183 1,600 -600 Descending FlightAware ADS-B
05:40PM 37.5825 -122.2680 280° West 159 183 1,500 -540 Descending FlightAware ADS-B
05:40PM 37.5840 -122.2760 283° West 158 182 1,400 -780 Descending FlightAware ADS-B
05:40PM 37.5861 -122.2830 291° West 156 180 1,300 -900 Descending FlightAware ADS-B
05:40PM 37.5894 -122.2930 293° West 149 171 1,100 -840 Descending FlightAware ADS-B
05:41PM 37.5941 -122.3060 295° West 148 170 900 -720 Descending FlightAware ADS-B
05:41PM 37.5969 -122.3130 297° West 152 175 800 -540 Descending FlightAware ADS-B
05:41PM 37.6011 -122.3250 294° West 156 180 700 -780 Descending FlightAware ADS-B
05:41PM 37.6039 -122.3340 291° West 157 181 500 -900 Descending FlightAware ADS-B
05:41PM 37.6051 -122.3370 297° West 157 181 500 -780 Level FlightAware ADS-B
05:41PM 37.6062 -122.3400 295° West 157 181 400 -1,140 Descending FlightAware ADS-B
05:41PM 37.6089 -122.3460 300° West 154 177 300 -720 Descending FlightAware ADS-B
05:42PM 37.6121 -122.3540 297° West 152 175 200 -720 Descending FlightAware ADS-B
05:42PM 37.6148 -122.3600 300° West 152 175 100 -780 Descending FlightAware ADS-B